sensor_id;sensor_type;location;lat;lon;timestamp;P1;durP1;ratioP1;P2;durP2;ratioP2
5871;SDS011;2962;51.312;7.378;2023-11-19T00:01:34;295.30;;;14.53;;
5871;SDS011;2962;51.312;7.378;2023-11-19T00:03:59;16.70;;;3.10;;
5871;SDS011;2962;51.312;7.378;2023-11-19T00:06:24;58.47;;;5.70;;
5871;SDS011;2962;51.312;7.378;2023-11-19T00:08:50;437.77;;;20.77;;
5871;SDS011;2962;51.312;7.378;2023-11-19T00:11:16;778.80;;;43.23;;
5871;SDS011;2962;51.312;7.378;2023-11-19T00:13:41;318.23;;;16.53;;
5871;SDS011;2962;51.312;7.378;2023-11-19T00:16:06;153.23;;;10.43;;
5871;SDS011;2962;51.312;7.378;2023-11-19T00:18:33;90.90;;;6.50;;
5871;SDS011;2962;51.312;7.378;2023-11-19T00:20:58;82.97;;;7.10;;
5871;SDS011;2962;51.312;7.378;2023-11-19T00:23:23;141.73;;;10.03;;
5871;SDS011;2962;51.312;7.378;2023-11-19T00:25:49;23.13;;;3.50;;
5871;SDS011;2962;51.312;7.378;2023-11-19T00:28:14;25.93;;;5.57;;
5871;SDS011;2962;51.312;7.378;2023-11-19T00:30:39;267.90;;;16.47;;
5871;SDS011;2962;51.312;7.378;2023-11-19T00:33:06;41.93;;;8.23;;
5871;SDS011;2962;51.312;7.378;2023-11-19T00:35:31;6.00;;;5.40;;
5871;SDS011;2962;51.312;7.378;2023-11-19T00:37:57;18.47;;;7.27;;
5871;SDS011;2962;51.312;7.378;2023-11-19T00:40:23;49.97;;;8.73;;
5871;SDS011;2962;51.312;7.378;2023-11-19T00:42:49;8.10;;;6.63;;
5871;SDS011;2962;51.312;7.378;2023-11-19T00:45:14;55.23;;;8.50;;
5871;SDS011;2962;51.312;7.378;2023-11-19T00:47:40;503.93;;;28.47;;
5871;SDS011;2962;51.312;7.378;2023-11-19T00:50:06;15.07;;;6.60;;
5871;SDS011;2962;51.312;7.378;2023-11-19T00:52:34;220.83;;;15.93;;
5871;SDS011;2962;51.312;7.378;2023-11-19T00:55:00;419.33;;;24.30;;
5871;SDS011;2962;51.312;7.378;2023-11-19T00:57:25;519.70;;;30.83;;
5871;SDS011;2962;51.312;7.378;2023-11-19T00:59:51;509.60;;;29.87;;
5871;SDS011;2962;51.312;7.378;2023-11-19T01:02:17;720.20;;;41.07;;
5871;SDS011;2962;51.312;7.378;2023-11-19T01:04:42;632.70;;;37.57;;
5871;SDS011;2962;51.312;7.378;2023-11-19T01:07:08;609.80;;;37.97;;
5871;SDS011;2962;51.312;7.378;2023-11-19T01:09:37;356.50;;;22.20;;
5871;SDS011;2962;51.312;7.378;2023-11-19T01:12:03;559.60;;;34.57;;
5871;SDS011;2962;51.312;7.378;2023-11-19T01:14:28;751.83;;;44.30;;
5871;SDS011;2962;51.312;7.378;2023-11-19T01:16:54;897.90;;;52.10;;
5871;SDS011;2962;51.312;7.378;2023-11-19T01:19:19;1031.40;;;58.83;;
5871;SDS011;2962;51.312;7.378;2023-11-19T01:21:46;804.53;;;48.47;;
5871;SDS011;2962;51.312;7.378;2023-11-19T01:24:11;975.47;;;57.73;;
5871;SDS011;2962;51.312;7.378;2023-11-19T01:26:38;719.97;;;43.60;;
5871;SDS011;2962;51.312;7.378;2023-11-19T01:29:03;706.43;;;43.03;;
5871;SDS011;2962;51.312;7.378;2023-11-19T01:31:29;827.80;;;46.93;;
5871;SDS011;2962;51.312;7.378;2023-11-19T01:33:56;1278.53;;;73.93;;
5871;SDS011;2962;51.312;7.378;2023-11-19T01:36:22;1088.63;;;64.17;;
5871;SDS011;2962;51.312;7.378;2023-11-19T01:38:47;954.00;;;52.07;;
5871;SDS011;2962;51.312;7.378;2023-11-19T01:41:12;1291.70;;;79.03;;
5871;SDS011;2962;51.312;7.378;2023-11-19T01:43:38;689.00;;;37.53;;
5871;SDS011;2962;51.312;7.378;2023-11-19T01:46:07;867.90;;;48.17;;
5871;SDS011;2962;51.312;7.378;2023-11-19T01:48:36;467.43;;;24.40;;
5871;SDS011;2962;51.312;7.378;2023-11-19T01:51:12;926.97;;;46.50;;
5871;SDS011;2962;51.312;7.378;2023-11-19T01:53:41;919.37;;;53.90;;
5871;SDS011;2962;51.312;7.378;2023-11-19T01:56:07;844.97;;;52.90;;
5871;SDS011;2962;51.312;7.378;2023-11-19T01:58:35;850.60;;;48.53;;
5871;SDS011;2962;51.312;7.378;2023-11-19T02:01:01;812.50;;;43.40;;
5871;SDS011;2962;51.312;7.378;2023-11-19T02:03:29;570.07;;;34.70;;
5871;SDS011;2962;51.312;7.378;2023-11-19T02:05:57;73.73;;;10.53;;
5871;SDS011;2962;51.312;7.378;2023-11-19T02:08:23;35.83;;;8.90;;
5871;SDS011;2962;51.312;7.378;2023-11-19T02:10:49;13.90;;;7.97;;
5871;SDS011;2962;51.312;7.378;2023-11-19T02:13:14;9.07;;;8.13;;
5871;SDS011;2962;51.312;7.378;2023-11-19T02:15:41;7.80;;;7.20;;
5871;SDS011;2962;51.312;7.378;2023-11-19T02:18:26;10.77;;;7.03;;
5871;SDS011;2962;51.312;7.378;2023-11-19T02:20:58;3.83;;;3.63;;
5871;SDS011;2962;51.312;7.378;2023-11-19T02:23:27;4.73;;;3.83;;
5871;SDS011;2962;51.312;7.378;2023-11-19T02:25:57;4.77;;;4.20;;
5871;SDS011;2962;51.312;7.378;2023-11-19T02:28:27;10.97;;;3.10;;
5871;SDS011;2962;51.312;7.378;2023-11-19T02:30:52;3.30;;;3.07;;
5871;SDS011;2962;51.312;7.378;2023-11-19T02:33:18;7.90;;;4.53;;
5871;SDS011;2962;51.312;7.378;2023-11-19T02:35:43;3.17;;;2.93;;
5871;SDS011;2962;51.312;7.378;2023-11-19T02:38:08;4.27;;;3.50;;
5871;SDS011;2962;51.312;7.378;2023-11-19T02:40:34;5.77;;;3.00;;
5871;SDS011;2962;51.312;7.378;2023-11-19T02:42:59;9.47;;;3.07;;
5871;SDS011;2962;51.312;7.378;2023-11-19T02:45:25;10.70;;;3.97;;
5871;SDS011;2962;51.312;7.378;2023-11-19T02:47:51;4.43;;;2.67;;
5871;SDS011;2962;51.312;7.378;2023-11-19T02:50:17;9.30;;;2.80;;
5871;SDS011;2962;51.312;7.378;2023-11-19T02:52:50;9.30;;;2.90;;
5871;SDS011;2962;51.312;7.378;2023-11-19T02:55:21;5.33;;;2.77;;
5871;SDS011;2962;51.312;7.378;2023-11-19T02:57:48;4.20;;;3.10;;
5871;SDS011;2962;51.312;7.378;2023-11-19T03:02:48;21.20;;;3.67;;
5871;SDS011;2962;51.312;7.378;2023-11-19T03:05:23;5.80;;;2.97;;
5871;SDS011;2962;51.312;7.378;2023-11-19T03:07:49;10.33;;;3.80;;
5871;SDS011;2962;51.312;7.378;2023-11-19T03:10:14;6.70;;;3.50;;
5871;SDS011;2962;51.312;7.378;2023-11-19T03:12:40;7.33;;;3.10;;
5871;SDS011;2962;51.312;7.378;2023-11-19T03:15:06;9.10;;;3.57;;
5871;SDS011;2962;51.312;7.378;2023-11-19T03:17:32;7.63;;;2.80;;
5871;SDS011;2962;51.312;7.378;2023-11-19T03:19:58;7.70;;;3.87;;
5871;SDS011;2962;51.312;7.378;2023-11-19T03:22:24;6.57;;;2.80;;
5871;SDS011;2962;51.312;7.378;2023-11-19T03:24:50;11.00;;;3.37;;
5871;SDS011;2962;51.312;7.378;2023-11-19T03:27:16;4.80;;;2.77;;
5871;SDS011;2962;51.312;7.378;2023-11-19T03:29:41;11.87;;;3.33;;
5871;SDS011;2962;51.312;7.378;2023-11-19T03:32:06;8.83;;;3.73;;
5871;SDS011;2962;51.312;7.378;2023-11-19T03:34:32;10.47;;;3.07;;
5871;SDS011;2962;51.312;7.378;2023-11-19T03:36:57;7.10;;;3.57;;
5871;SDS011;2962;51.312;7.378;2023-11-19T03:39:22;12.73;;;4.20;;
5871;SDS011;2962;51.312;7.378;2023-11-19T03:41:50;13.27;;;3.00;;
5871;SDS011;2962;51.312;7.378;2023-11-19T03:44:15;8.17;;;2.73;;
5871;SDS011;2962;51.312;7.378;2023-11-19T03:46:41;9.70;;;3.43;;
5871;SDS011;2962;51.312;7.378;2023-11-19T03:49:08;13.23;;;3.37;;
5871;SDS011;2962;51.312;7.378;2023-11-19T03:51:33;13.57;;;2.90;;
5871;SDS011;2962;51.312;7.378;2023-11-19T03:53:59;15.70;;;3.50;;
5871;SDS011;2962;51.312;7.378;2023-11-19T03:56:25;14.07;;;3.50;;
5871;SDS011;2962;51.312;7.378;2023-11-19T03:58:52;18.50;;;3.43;;
5871;SDS011;2962;51.312;7.378;2023-11-19T04:01:17;12.77;;;2.23;;
5871;SDS011;2962;51.312;7.378;2023-11-19T04:03:42;18.20;;;4.13;;
5871;SDS011;2962;51.312;7.378;2023-11-19T04:06:08;12.57;;;3.60;;
5871;SDS011;2962;51.312;7.378;2023-11-19T04:08:33;7.83;;;1.50;;
5871;SDS011;2962;51.312;7.378;2023-11-19T04:10:58;5.60;;;1.93;;
5871;SDS011;2962;51.312;7.378;2023-11-19T04:13:26;12.07;;;2.80;;
5871;SDS011;2962;51.312;7.378;2023-11-19T04:15:51;10.97;;;2.63;;
5871;SDS011;2962;51.312;7.378;2023-11-19T04:18:16;8.03;;;2.37;;
5871;SDS011;2962;51.312;7.378;2023-11-19T04:20:41;9.97;;;3.23;;
5871;SDS011;2962;51.312;7.378;2023-11-19T04:23:07;10.50;;;3.23;;
5871;SDS011;2962;51.312;7.378;2023-11-19T04:25:34;8.40;;;2.70;;
5871;SDS011;2962;51.312;7.378;2023-11-19T04:28:00;19.67;;;2.57;;
5871;SDS011;2962;51.312;7.378;2023-11-19T04:30:25;19.47;;;3.13;;
5871;SDS011;2962;51.312;7.378;2023-11-19T04:32:50;16.33;;;3.73;;
5871;SDS011;2962;51.312;7.378;2023-11-19T04:35:16;14.10;;;2.07;;
5871;SDS011;2962;51.312;7.378;2023-11-19T04:37:41;12.90;;;3.57;;
5871;SDS011;2962;51.312;7.378;2023-11-19T04:40:07;12.43;;;2.83;;
5871;SDS011;2962;51.312;7.378;2023-11-19T04:42:32;8.50;;;2.63;;
5871;SDS011;2962;51.312;7.378;2023-11-19T04:44:58;23.43;;;3.10;;
5871;SDS011;2962;51.312;7.378;2023-11-19T04:47:23;14.80;;;2.27;;
5871;SDS011;2962;51.312;7.378;2023-11-19T04:49:48;8.23;;;1.47;;
5871;SDS011;2962;51.312;7.378;2023-11-19T04:52:14;17.97;;;2.90;;
5871;SDS011;2962;51.312;7.378;2023-11-19T04:54:42;12.57;;;3.03;;
5871;SDS011;2962;51.312;7.378;2023-11-19T04:57:08;13.90;;;3.23;;
5871;SDS011;2962;51.312;7.378;2023-11-19T04:59:37;17.17;;;4.60;;
5871;SDS011;2962;51.312;7.378;2023-11-19T05:02:02;15.40;;;3.43;;
5871;SDS011;2962;51.312;7.378;2023-11-19T05:04:29;22.43;;;3.70;;
5871;SDS011;2962;51.312;7.378;2023-11-19T05:06:54;16.70;;;3.27;;
5871;SDS011;2962;51.312;7.378;2023-11-19T05:09:19;10.53;;;3.53;;
5871;SDS011;2962;51.312;7.378;2023-11-19T05:11:45;16.13;;;2.80;;
5871;SDS011;2962;51.312;7.378;2023-11-19T05:14:10;30.77;;;3.40;;
5871;SDS011;2962;51.312;7.378;2023-11-19T05:16:35;12.27;;;3.10;;
5871;SDS011;2962;51.312;7.378;2023-11-19T05:19:00;16.60;;;2.37;;
5871;SDS011;2962;51.312;7.378;2023-11-19T05:21:26;13.63;;;2.60;;
5871;SDS011;2962;51.312;7.378;2023-11-19T05:23:51;20.50;;;3.20;;
5871;SDS011;2962;51.312;7.378;2023-11-19T05:26:17;7.40;;;4.10;;
5871;SDS011;2962;51.312;7.378;2023-11-19T05:28:43;15.00;;;3.13;;
5871;SDS011;2962;51.312;7.378;2023-11-19T05:31:08;13.13;;;2.87;;
5871;SDS011;2962;51.312;7.378;2023-11-19T05:33:34;13.87;;;2.60;;
5871;SDS011;2962;51.312;7.378;2023-11-19T05:35:59;14.43;;;2.73;;
5871;SDS011;2962;51.312;7.378;2023-11-19T05:38:24;21.80;;;3.60;;
5871;SDS011;2962;51.312;7.378;2023-11-19T05:40:49;17.97;;;2.63;;
5871;SDS011;2962;51.312;7.378;2023-11-19T05:43:15;7.53;;;1.67;;
5871;SDS011;2962;51.312;7.378;2023-11-19T05:45:41;13.33;;;2.47;;
5871;SDS011;2962;51.312;7.378;2023-11-19T05:48:07;15.40;;;3.40;;
5871;SDS011;2962;51.312;7.378;2023-11-19T05:50:33;14.00;;;2.60;;
5871;SDS011;2962;51.312;7.378;2023-11-19T05:52:59;10.00;;;2.67;;
5871;SDS011;2962;51.312;7.378;2023-11-19T05:55:24;14.23;;;1.83;;
5871;SDS011;2962;51.312;7.378;2023-11-19T05:57:49;16.80;;;3.23;;
5871;SDS011;2962;51.312;7.378;2023-11-19T06:00:16;21.63;;;3.30;;
5871;SDS011;2962;51.312;7.378;2023-11-19T06:02:42;16.73;;;3.33;;
5871;SDS011;2962;51.312;7.378;2023-11-19T06:05:08;7.27;;;2.50;;
5871;SDS011;2962;51.312;7.378;2023-11-19T06:07:34;23.30;;;2.90;;
5871;SDS011;2962;51.312;7.378;2023-11-19T06:10:01;17.00;;;2.97;;
5871;SDS011;2962;51.312;7.378;2023-11-19T06:12:27;18.63;;;3.87;;
5871;SDS011;2962;51.312;7.378;2023-11-19T06:14:53;30.23;;;4.30;;
5871;SDS011;2962;51.312;7.378;2023-11-19T06:17:18;22.03;;;3.53;;
5871;SDS011;2962;51.312;7.378;2023-11-19T06:19:43;10.83;;;2.00;;
5871;SDS011;2962;51.312;7.378;2023-11-19T06:22:09;22.23;;;3.03;;
5871;SDS011;2962;51.312;7.378;2023-11-19T06:24:36;10.43;;;1.93;;
5871;SDS011;2962;51.312;7.378;2023-11-19T06:27:01;15.67;;;2.77;;
5871;SDS011;2962;51.312;7.378;2023-11-19T06:29:27;13.43;;;2.90;;
5871;SDS011;2962;51.312;7.378;2023-11-19T06:31:52;27.20;;;4.07;;
5871;SDS011;2962;51.312;7.378;2023-11-19T06:34:17;19.33;;;3.53;;
5871;SDS011;2962;51.312;7.378;2023-11-19T06:36:43;18.27;;;2.50;;
5871;SDS011;2962;51.312;7.378;2023-11-19T06:39:11;15.07;;;2.40;;
5871;SDS011;2962;51.312;7.378;2023-11-19T06:41:37;11.33;;;2.53;;
5871;SDS011;2962;51.312;7.378;2023-11-19T06:44:04;9.50;;;2.23;;
5871;SDS011;2962;51.312;7.378;2023-11-19T06:46:30;21.20;;;3.17;;
5871;SDS011;2962;51.312;7.378;2023-11-19T06:48:56;19.27;;;3.30;;
5871;SDS011;2962;51.312;7.378;2023-11-19T06:51:21;14.07;;;2.90;;
5871;SDS011;2962;51.312;7.378;2023-11-19T06:53:46;13.07;;;2.27;;
5871;SDS011;2962;51.312;7.378;2023-11-19T06:56:21;11.73;;;2.17;;
5871;SDS011;2962;51.312;7.378;2023-11-19T06:58:48;10.23;;;2.83;;
5871;SDS011;2962;51.312;7.378;2023-11-19T07:01:14;16.90;;;3.20;;
5871;SDS011;2962;51.312;7.378;2023-11-19T07:03:40;21.23;;;3.10;;
5871;SDS011;2962;51.312;7.378;2023-11-19T07:06:05;14.10;;;3.10;;
5871;SDS011;2962;51.312;7.378;2023-11-19T07:08:31;16.87;;;3.20;;
5871;SDS011;2962;51.312;7.378;2023-11-19T07:10:56;13.43;;;3.20;;
5871;SDS011;2962;51.312;7.378;2023-11-19T07:13:21;13.83;;;3.03;;
5871;SDS011;2962;51.312;7.378;2023-11-19T07:15:46;11.70;;;3.53;;
5871;SDS011;2962;51.312;7.378;2023-11-19T07:18:12;15.20;;;2.50;;
5871;SDS011;2962;51.312;7.378;2023-11-19T07:20:37;17.27;;;3.23;;
5871;SDS011;2962;51.312;7.378;2023-11-19T07:23:03;20.70;;;2.90;;
5871;SDS011;2962;51.312;7.378;2023-11-19T07:25:28;14.00;;;2.50;;
5871;SDS011;2962;51.312;7.378;2023-11-19T07:27:54;10.90;;;2.87;;
5871;SDS011;2962;51.312;7.378;2023-11-19T07:30:19;11.83;;;2.63;;
5871;SDS011;2962;51.312;7.378;2023-11-19T07:32:44;13.23;;;3.13;;
5871;SDS011;2962;51.312;7.378;2023-11-19T07:35:09;25.97;;;3.23;;
5871;SDS011;2962;51.312;7.378;2023-11-19T07:37:35;30.57;;;3.47;;
5871;SDS011;2962;51.312;7.378;2023-11-19T07:40:00;14.63;;;2.37;;
5871;SDS011;2962;51.312;7.378;2023-11-19T07:42:25;21.87;;;3.30;;
5871;SDS011;2962;51.312;7.378;2023-11-19T07:44:51;28.63;;;3.80;;
5871;SDS011;2962;51.312;7.378;2023-11-19T07:47:16;27.73;;;4.10;;
5871;SDS011;2962;51.312;7.378;2023-11-19T07:49:41;21.13;;;3.20;;
5871;SDS011;2962;51.312;7.378;2023-11-19T07:52:09;16.83;;;2.83;;
5871;SDS011;2962;51.312;7.378;2023-11-19T07:54:35;16.93;;;2.27;;
5871;SDS011;2962;51.312;7.378;2023-11-19T07:57:00;24.00;;;2.83;;
5871;SDS011;2962;51.312;7.378;2023-11-19T07:59:26;10.87;;;2.00;;
5871;SDS011;2962;51.312;7.378;2023-11-19T08:01:51;13.13;;;3.43;;
5871;SDS011;2962;51.312;7.378;2023-11-19T08:04:16;15.43;;;2.63;;
5871;SDS011;2962;51.312;7.378;2023-11-19T08:06:42;19.57;;;2.73;;
5871;SDS011;2962;51.312;7.378;2023-11-19T08:09:07;20.43;;;3.20;;
5871;SDS011;2962;51.312;7.378;2023-11-19T08:11:38;8.60;;;2.67;;
5871;SDS011;2962;51.312;7.378;2023-11-19T08:14:04;17.73;;;2.53;;
5871;SDS011;2962;51.312;7.378;2023-11-19T08:16:29;14.40;;;3.20;;
5871;SDS011;2962;51.312;7.378;2023-11-19T08:18:55;18.70;;;3.83;;
5871;SDS011;2962;51.312;7.378;2023-11-19T08:21:23;24.97;;;3.10;;
5871;SDS011;2962;51.312;7.378;2023-11-19T08:23:48;46.77;;;5.87;;
5871;SDS011;2962;51.312;7.378;2023-11-19T08:26:14;12.00;;;2.10;;
5871;SDS011;2962;51.312;7.378;2023-11-19T08:28:40;17.33;;;2.90;;
5871;SDS011;2962;51.312;7.378;2023-11-19T08:31:05;21.97;;;2.37;;
5871;SDS011;2962;51.312;7.378;2023-11-19T08:33:30;18.73;;;3.27;;
5871;SDS011;2962;51.312;7.378;2023-11-19T08:35:56;17.00;;;4.47;;
5871;SDS011;2962;51.312;7.378;2023-11-19T08:38:22;27.00;;;3.63;;
5871;SDS011;2962;51.312;7.378;2023-11-19T08:40:47;20.03;;;3.70;;
5871;SDS011;2962;51.312;7.378;2023-11-19T08:43:12;20.93;;;3.80;;
5871;SDS011;2962;51.312;7.378;2023-11-19T08:45:38;20.13;;;4.00;;
5871;SDS011;2962;51.312;7.378;2023-11-19T08:48:03;12.87;;;2.37;;
5871;SDS011;2962;51.312;7.378;2023-11-19T08:50:28;19.83;;;2.43;;
5871;SDS011;2962;51.312;7.378;2023-11-19T08:52:54;20.90;;;3.87;;
5871;SDS011;2962;51.312;7.378;2023-11-19T08:55:19;9.77;;;2.40;;
5871;SDS011;2962;51.312;7.378;2023-11-19T08:57:44;24.23;;;3.53;;
5871;SDS011;2962;51.312;7.378;2023-11-19T09:00:10;16.93;;;2.93;;
5871;SDS011;2962;51.312;7.378;2023-11-19T09:02:39;13.23;;;2.80;;
5871;SDS011;2962;51.312;7.378;2023-11-19T09:05:04;18.80;;;2.80;;
5871;SDS011;2962;51.312;7.378;2023-11-19T09:07:32;18.83;;;3.23;;
5871;SDS011;2962;51.312;7.378;2023-11-19T09:09:57;24.13;;;2.90;;
5871;SDS011;2962;51.312;7.378;2023-11-19T09:12:23;13.67;;;3.00;;
5871;SDS011;2962;51.312;7.378;2023-11-19T09:14:48;32.77;;;3.80;;
5871;SDS011;2962;51.312;7.378;2023-11-19T09:17:14;14.67;;;3.13;;
5871;SDS011;2962;51.312;7.378;2023-11-19T09:19:39;17.60;;;2.73;;
5871;SDS011;2962;51.312;7.378;2023-11-19T09:22:04;14.77;;;2.47;;
5871;SDS011;2962;51.312;7.378;2023-11-19T09:24:30;21.00;;;3.40;;
5871;SDS011;2962;51.312;7.378;2023-11-19T09:26:55;14.93;;;3.63;;
5871;SDS011;2962;51.312;7.378;2023-11-19T09:29:21;11.93;;;2.80;;
5871;SDS011;2962;51.312;7.378;2023-11-19T09:31:46;11.50;;;1.80;;
5871;SDS011;2962;51.312;7.378;2023-11-19T09:34:12;15.23;;;3.80;;
5871;SDS011;2962;51.312;7.378;2023-11-19T09:36:37;17.27;;;2.77;;
5871;SDS011;2962;51.312;7.378;2023-11-19T09:39:02;21.30;;;3.60;;
5871;SDS011;2962;51.312;7.378;2023-11-19T09:41:29;29.80;;;3.50;;
5871;SDS011;2962;51.312;7.378;2023-11-19T09:43:56;11.30;;;2.77;;
5871;SDS011;2962;51.312;7.378;2023-11-19T09:46:21;15.50;;;3.07;;
5871;SDS011;2962;51.312;7.378;2023-11-19T09:48:49;21.53;;;2.60;;
5871;SDS011;2962;51.312;7.378;2023-11-19T09:51:19;20.63;;;3.33;;
5871;SDS011;2962;51.312;7.378;2023-11-19T09:53:45;24.60;;;3.83;;
5871;SDS011;2962;51.312;7.378;2023-11-19T09:56:10;17.47;;;3.13;;
5871;SDS011;2962;51.312;7.378;2023-11-19T09:58:37;17.83;;;3.53;;
5871;SDS011;2962;51.312;7.378;2023-11-19T10:01:02;15.40;;;3.50;;
5871;SDS011;2962;51.312;7.378;2023-11-19T10:03:32;15.33;;;2.67;;
5871;SDS011;2962;51.312;7.378;2023-11-19T10:05:59;24.53;;;4.07;;
5871;SDS011;2962;51.312;7.378;2023-11-19T10:08:25;15.73;;;3.57;;
5871;SDS011;2962;51.312;7.378;2023-11-19T10:10:51;11.47;;;2.70;;
5871;SDS011;2962;51.312;7.378;2023-11-19T10:13:16;19.90;;;3.10;;
5871;SDS011;2962;51.312;7.378;2023-11-19T10:15:42;23.07;;;3.33;;
5871;SDS011;2962;51.312;7.378;2023-11-19T10:18:08;17.53;;;3.97;;
5871;SDS011;2962;51.312;7.378;2023-11-19T10:20:37;19.00;;;5.70;;
5871;SDS011;2962;51.312;7.378;2023-11-19T10:23:03;17.13;;;2.80;;
5871;SDS011;2962;51.312;7.378;2023-11-19T10:25:28;12.27;;;2.83;;
5871;SDS011;2962;51.312;7.378;2023-11-19T10:27:55;20.53;;;3.43;;
5871;SDS011;2962;51.312;7.378;2023-11-19T10:30:22;20.93;;;3.47;;
5871;SDS011;2962;51.312;7.378;2023-11-19T10:33:07;24.90;;;3.60;;
5871;SDS011;2962;51.312;7.378;2023-11-19T10:35:34;32.23;;;4.53;;
5871;SDS011;2962;51.312;7.378;2023-11-19T10:38:01;21.93;;;3.50;;
5871;SDS011;2962;51.312;7.378;2023-11-19T10:40:38;21.30;;;3.60;;
5871;SDS011;2962;51.312;7.378;2023-11-19T10:43:07;29.77;;;4.00;;
5871;SDS011;2962;51.312;7.378;2023-11-19T10:45:32;21.37;;;4.37;;
5871;SDS011;2962;51.312;7.378;2023-11-19T10:47:58;21.00;;;3.50;;
5871;SDS011;2962;51.312;7.378;2023-11-19T10:50:24;23.13;;;4.33;;
5871;SDS011;2962;51.312;7.378;2023-11-19T10:52:50;23.67;;;3.03;;
5871;SDS011;2962;51.312;7.378;2023-11-19T10:55:20;14.40;;;2.73;;
5871;SDS011;2962;51.312;7.378;2023-11-19T10:57:52;18.63;;;3.57;;
5871;SDS011;2962;51.312;7.378;2023-11-19T11:00:20;20.63;;;4.30;;
5871;SDS011;2962;51.312;7.378;2023-11-19T11:02:48;8.07;;;2.37;;
5871;SDS011;2962;51.312;7.378;2023-11-19T11:05:17;19.97;;;3.80;;
5871;SDS011;2962;51.312;7.378;2023-11-19T11:07:44;7.40;;;2.30;;
5871;SDS011;2962;51.312;7.378;2023-11-19T11:10:09;18.27;;;4.00;;
5871;SDS011;2962;51.312;7.378;2023-11-19T11:12:37;13.87;;;2.33;;
5871;SDS011;2962;51.312;7.378;2023-11-19T11:15:06;20.23;;;3.30;;
5871;SDS011;2962;51.312;7.378;2023-11-19T11:17:33;20.67;;;3.20;;
5871;SDS011;2962;51.312;7.378;2023-11-19T11:19:58;26.67;;;3.53;;
5871;SDS011;2962;51.312;7.378;2023-11-19T11:22:24;18.83;;;3.27;;
5871;SDS011;2962;51.312;7.378;2023-11-19T11:25:02;18.13;;;3.10;;
5871;SDS011;2962;51.312;7.378;2023-11-19T11:38:36;21.03;;;3.07;;
5871;SDS011;2962;51.312;7.378;2023-11-19T11:41:17;18.53;;;3.80;;
5871;SDS011;2962;51.312;7.378;2023-11-19T11:43:53;20.80;;;3.20;;
5871;SDS011;2962;51.312;7.378;2023-11-19T11:49:02;18.40;;;3.47;;
5871;SDS011;2962;51.312;7.378;2023-11-19T11:54:09;25.83;;;3.73;;
5871;SDS011;2962;51.312;7.378;2023-11-19T11:56:38;18.17;;;3.60;;
5871;SDS011;2962;51.312;7.378;2023-11-19T11:59:19;11.50;;;2.97;;
5871;SDS011;2962;51.312;7.378;2023-11-19T12:01:57;19.20;;;3.30;;
5871;SDS011;2962;51.312;7.378;2023-11-19T12:04:25;23.10;;;2.80;;
5871;SDS011;2962;51.312;7.378;2023-11-19T12:07:12;13.23;;;2.40;;
5871;SDS011;2962;51.312;7.378;2023-11-19T12:09:42;14.30;;;3.10;;
5871;SDS011;2962;51.312;7.378;2023-11-19T12:20:03;17.90;;;2.70;;
5871;SDS011;2962;51.312;7.378;2023-11-19T12:22:43;17.03;;;3.40;;
5871;SDS011;2962;51.312;7.378;2023-11-19T12:25:10;7.37;;;1.60;;
5871;SDS011;2962;51.312;7.378;2023-11-19T12:27:37;17.33;;;2.20;;
5871;SDS011;2962;51.312;7.378;2023-11-19T12:30:05;12.00;;;2.50;;
5871;SDS011;2962;51.312;7.378;2023-11-19T12:32:37;10.30;;;2.73;;
5871;SDS011;2962;51.312;7.378;2023-11-19T12:35:06;13.00;;;3.33;;
5871;SDS011;2962;51.312;7.378;2023-11-19T12:37:38;29.53;;;4.10;;
5871;SDS011;2962;51.312;7.378;2023-11-19T12:40:14;17.97;;;3.87;;
5871;SDS011;2962;51.312;7.378;2023-11-19T12:42:42;8.23;;;3.10;;
5871;SDS011;2962;51.312;7.378;2023-11-19T12:45:08;21.00;;;4.13;;
5871;SDS011;2962;51.312;7.378;2023-11-19T12:47:35;16.57;;;2.87;;
5871;SDS011;2962;51.312;7.378;2023-11-19T12:50:01;9.73;;;2.00;;
5871;SDS011;2962;51.312;7.378;2023-11-19T12:52:27;17.17;;;2.53;;
5871;SDS011;2962;51.312;7.378;2023-11-19T12:54:52;14.33;;;4.00;;
5871;SDS011;2962;51.312;7.378;2023-11-19T12:57:17;10.00;;;3.30;;
5871;SDS011;2962;51.312;7.378;2023-11-19T12:59:54;13.63;;;2.90;;
5871;SDS011;2962;51.312;7.378;2023-11-19T13:02:23;12.97;;;2.40;;
5871;SDS011;2962;51.312;7.378;2023-11-19T13:07:58;12.30;;;2.60;;
5871;SDS011;2962;51.312;7.378;2023-11-19T13:10:25;11.40;;;2.00;;
5871;SDS011;2962;51.312;7.378;2023-11-19T13:13:06;10.57;;;1.57;;
5871;SDS011;2962;51.312;7.378;2023-11-19T13:15:33;18.03;;;2.83;;
5871;SDS011;2962;51.312;7.378;2023-11-19T13:17:59;13.27;;;2.50;;
5871;SDS011;2962;51.312;7.378;2023-11-19T13:20:25;7.07;;;2.40;;
5871;SDS011;2962;51.312;7.378;2023-11-19T13:22:57;18.27;;;2.90;;
5871;SDS011;2962;51.312;7.378;2023-11-19T13:25:24;18.87;;;2.43;;
5871;SDS011;2962;51.312;7.378;2023-11-19T13:27:49;10.43;;;2.80;;
5871;SDS011;2962;51.312;7.378;2023-11-19T13:30:15;10.70;;;3.17;;
5871;SDS011;2962;51.312;7.378;2023-11-19T13:32:41;6.07;;;1.73;;
5871;SDS011;2962;51.312;7.378;2023-11-19T13:35:06;11.00;;;2.70;;
5871;SDS011;2962;51.312;7.378;2023-11-19T13:37:33;14.73;;;3.70;;
5871;SDS011;2962;51.312;7.378;2023-11-19T13:39:59;8.87;;;2.60;;
5871;SDS011;2962;51.312;7.378;2023-11-19T13:42:24;15.27;;;2.70;;
5871;SDS011;2962;51.312;7.378;2023-11-19T13:44:50;7.77;;;2.53;;
5871;SDS011;2962;51.312;7.378;2023-11-19T13:47:15;14.27;;;2.30;;
5871;SDS011;2962;51.312;7.378;2023-11-19T13:49:40;12.00;;;2.80;;
5871;SDS011;2962;51.312;7.378;2023-11-19T13:52:06;9.83;;;1.70;;
5871;SDS011;2962;51.312;7.378;2023-11-19T13:54:31;3.97;;;2.47;;
5871;SDS011;2962;51.312;7.378;2023-11-19T13:56:56;4.90;;;1.80;;
5871;SDS011;2962;51.312;7.378;2023-11-19T13:59:25;17.50;;;3.57;;
5871;SDS011;2962;51.312;7.378;2023-11-19T14:01:51;13.10;;;1.70;;
5871;SDS011;2962;51.312;7.378;2023-11-19T14:04:16;12.90;;;2.73;;
5871;SDS011;2962;51.312;7.378;2023-11-19T14:06:44;18.70;;;3.20;;
5871;SDS011;2962;51.312;7.378;2023-11-19T14:09:10;10.67;;;2.27;;
5871;SDS011;2962;51.312;7.378;2023-11-19T14:11:35;6.27;;;1.80;;
5871;SDS011;2962;51.312;7.378;2023-11-19T14:14:01;10.43;;;2.37;;
5871;SDS011;2962;51.312;7.378;2023-11-19T14:16:26;5.90;;;1.57;;
5871;SDS011;2962;51.312;7.378;2023-11-19T14:18:52;3.97;;;1.70;;
5871;SDS011;2962;51.312;7.378;2023-11-19T14:21:18;8.83;;;2.17;;
5871;SDS011;2962;51.312;7.378;2023-11-19T14:23:43;15.97;;;2.60;;
5871;SDS011;2962;51.312;7.378;2023-11-19T14:26:08;8.77;;;2.40;;
5871;SDS011;2962;51.312;7.378;2023-11-19T14:28:33;11.50;;;2.43;;
5871;SDS011;2962;51.312;7.378;2023-11-19T14:30:59;25.30;;;2.33;;
5871;SDS011;2962;51.312;7.378;2023-11-19T14:33:24;18.23;;;2.17;;
5871;SDS011;2962;51.312;7.378;2023-11-19T14:35:50;23.63;;;2.40;;
5871;SDS011;2962;51.312;7.378;2023-11-19T14:38:15;14.30;;;2.20;;
5871;SDS011;2962;51.312;7.378;2023-11-19T14:40:40;7.07;;;1.97;;
5871;SDS011;2962;51.312;7.378;2023-11-19T14:43:07;27.37;;;2.70;;
5871;SDS011;2962;51.312;7.378;2023-11-19T14:45:35;14.77;;;2.70;;
5871;SDS011;2962;51.312;7.378;2023-11-19T14:48:00;22.80;;;4.00;;
5871;SDS011;2962;51.312;7.378;2023-11-19T14:50:26;14.73;;;3.20;;
5871;SDS011;2962;51.312;7.378;2023-11-19T14:52:51;18.97;;;3.10;;
5871;SDS011;2962;51.312;7.378;2023-11-19T14:55:16;13.53;;;3.33;;
5871;SDS011;2962;51.312;7.378;2023-11-19T14:57:41;20.83;;;3.20;;
5871;SDS011;2962;51.312;7.378;2023-11-19T15:00:09;12.20;;;3.10;;
5871;SDS011;2962;51.312;7.378;2023-11-19T15:02:38;31.77;;;3.70;;
5871;SDS011;2962;51.312;7.378;2023-11-19T15:05:09;8.97;;;3.10;;
5871;SDS011;2962;51.312;7.378;2023-11-19T15:07:38;14.50;;;3.20;;
5871;SDS011;2962;51.312;7.378;2023-11-19T15:10:05;17.37;;;3.47;;
5871;SDS011;2962;51.312;7.378;2023-11-19T15:12:37;21.37;;;3.57;;
5871;SDS011;2962;51.312;7.378;2023-11-19T15:15:05;28.27;;;3.10;;
5871;SDS011;2962;51.312;7.378;2023-11-19T15:17:33;20.93;;;3.40;;
5871;SDS011;2962;51.312;7.378;2023-11-19T15:19:59;16.97;;;3.23;;
5871;SDS011;2962;51.312;7.378;2023-11-19T15:22:24;21.90;;;4.53;;
5871;SDS011;2962;51.312;7.378;2023-11-19T15:24:49;13.10;;;2.40;;
5871;SDS011;2962;51.312;7.378;2023-11-19T15:27:14;7.23;;;2.83;;